This is the latest recevied weather packets stored in our database for station/object EA4BCR. If no packets are shown the sender has not sent any weather packets the latest 10 day(s).
| Time | Temp. | Humidity | Pressure | Rain* | Wind** | Luminosity | Snow |
|---|---|---|---|---|---|---|---|
| 1788004816 | 28.33° C | 31% | 1015.8 hPa | - | - | - | - |
| 1788004217 | 27.78° C | 30% | 1016.1 hPa | - | - | - | - |
| 1788003616 | 27.78° C | 28% | 1016.3 hPa | - | - | - | - |
| 1788003016 | 27.78° C | 29% | 1016.2 hPa | - | - | - | - |
| 1788002417 | 28.33° C | 29% | 1016.1 hPa | - | - | - | - |
| 1788001817 | 27.78° C | 29% | 1016.4 hPa | - | - | - | - |
| 1788001216 | 26.67° C | 32% | 1016.8 hPa | - | - | - | - |
| 1788000616 | 26.67° C | 30% | 1017.1 hPa | - | - | - | - |
| 1788000016 | 26.11° C | 32% | 1017.4 hPa | - | - | - | - |
| 1787999417 | 25.56° C | 34% | 1017.7 hPa | - | - | - | - |
| 1787998817 | 25.56° C | 32% | 1017.8 hPa | - | - | - | - |
| 1787998216 | 25.56° C | 37% | 1017.9 hPa | - | - | - | - |
| 1787997616 | 23.89° C | 38% | 1018.4 hPa | - | - | - | - |
| 1787997016 | 23.89° C | 34% | 1018.4 hPa | - | - | - | - |
| 1787996416 | 23.33° C | 39% | 1018.8 hPa | - | - | - | - |
| 1787995816 | 23.33° C | 37% | 1018.6 hPa | - | - | - | - |
| 1787995216 | 22.78° C | 38% | 1018.7 hPa | - | - | - | - |
| 1787994616 | 22.22° C | 43% | 1019 hPa | - | - | - | - |
| 1787994017 | 21.11° C | 42% | 1019.4 hPa | - | - | - | - |
| 1787993416 | 20.56° C | 44% | 1019.5 hPa | - | - | - | - |
| 1787992816 | 20° C | 46% | 1019.6 hPa | - | - | - | - |
| 1787992216 | 19.44° C | 46% | 1019.7 hPa | - | - | - | - |
| 1787991616 | 17.78° C | 49% | 1020.3 hPa | - | - | - | - |
| 1787991016 | 17.78° C | 49% | 1020.3 hPa | - | - | - | - |
| 1787990417 | 17.22° C | 49% | 1020.6 hPa | - | - | - | - |
* Rain since midnight (hover to see other rain measurements)
** Current wind speed in m/s (hover to see current wind gust speed)